createdAt,value
2023-04-29T00:00:12.957Z,9.48
2023-04-29T00:03:15.244Z,7.47
2023-04-29T00:06:18.303Z,9.65
2023-04-29T00:09:21.385Z,8.05
2023-04-29T00:12:23.421Z,8.25
2023-04-29T00:15:25.454Z,9.10
2023-04-29T00:18:27.433Z,9.03
2023-04-29T00:21:29.635Z,8.07
2023-04-29T00:24:31.672Z,9.43
2023-04-29T00:27:33.676Z,7.20
2023-04-29T00:30:35.704Z,9.53
2023-04-29T00:33:38.431Z,8.50
2023-04-29T00:36:40.394Z,7.93
2023-04-29T00:39:42.455Z,7.82
2023-04-29T00:42:44.502Z,8.07
2023-04-29T00:45:47.203Z,10.18
2023-04-29T00:48:49.797Z,9.52
2023-04-29T00:51:52.089Z,10.85
2023-04-29T00:54:54.102Z,8.47
2023-04-29T00:57:56.130Z,10.43
2023-04-29T01:00:58.647Z,9.88
2023-04-29T01:04:00.988Z,9.55
2023-04-29T01:07:24.220Z,8.20
2023-04-29T01:10:29.779Z,6.90
2023-04-29T01:13:43.540Z,6.90
2023-04-29T01:16:51.311Z,9.88
2023-04-29T01:19:59.086Z,7.30
2023-04-29T01:23:01.641Z,7.93
2023-04-29T01:26:06.010Z,11.27
2023-04-29T01:29:27.471Z,10.52
2023-04-29T01:32:43.713Z,7.85
2023-04-29T01:36:04.009Z,10.07
2023-04-29T01:39:14.724Z,9.52
2023-04-29T01:42:23.151Z,9.27
2023-04-29T01:45:26.641Z,10.33
2023-04-29T01:48:28.974Z,8.60
2023-04-29T01:51:31.558Z,10.10
2023-04-29T01:54:36.704Z,11.05
2023-04-29T01:57:38.896Z,10.10
2023-04-29T02:00:55.414Z,10.83
2023-04-29T02:03:57.630Z,8.52
2023-04-29T02:07:00.325Z,9.32
2023-04-29T02:10:02.415Z,13.85
2023-04-29T02:13:08.618Z,9.80
2023-04-29T02:16:11.517Z,11.65
2023-04-29T02:19:18.086Z,10.52
2023-04-29T02:22:20.118Z,10.33
2023-04-29T02:25:22.341Z,10.53
2023-04-29T02:28:24.396Z,9.23
2023-04-29T02:31:26.528Z,10.93
2023-04-29T02:34:29.667Z,13.43
2023-04-29T02:37:32.148Z,13.63
2023-04-29T02:40:34.169Z,9.02
2023-04-29T02:43:36.396Z,9.75
2023-04-29T02:46:40.918Z,11.15
2023-04-29T02:49:42.895Z,8.10
2023-04-29T02:52:44.895Z,12.55
2023-04-29T02:55:47.281Z,12.68
2023-04-29T02:58:49.429Z,10.52
2023-04-29T03:01:51.498Z,9.53
2023-04-29T03:04:53.569Z,9.60
2023-04-29T03:07:55.942Z,10.40
2023-04-29T03:10:58.828Z,11.30
2023-04-29T03:14:01.566Z,9.63
2023-04-29T03:17:04.972Z,9.85
2023-04-29T03:20:07.998Z,11.10
2023-04-29T03:23:10.183Z,11.20
2023-04-29T03:26:12.248Z,12.27
2023-04-29T03:29:14.305Z,13.63
2023-04-29T03:32:16.431Z,11.98
2023-04-29T03:35:20.141Z,11.13
2023-04-29T03:38:42.058Z,15.47
2023-04-29T03:41:44.387Z,13.18
2023-04-29T03:44:46.580Z,15.60
2023-04-29T03:47:48.781Z,14.70
2023-04-29T03:50:50.909Z,9.70
2023-04-29T03:53:54.005Z,14.23
2023-04-29T03:56:56.517Z,10.43
2023-04-29T03:59:59.314Z,14.07
2023-04-29T04:03:04.384Z,9.80
2023-04-29T04:06:07.489Z,12.85
2023-04-29T04:09:09.672Z,9.63
2023-04-29T04:12:12.411Z,9.87
2023-04-29T04:15:14.744Z,10.35
2023-04-29T04:18:17.093Z,11.32
2023-04-29T04:21:19.809Z,8.27
2023-04-29T04:24:30.320Z,11.35
2023-04-29T04:27:32.602Z,11.65
2023-04-29T04:30:37.928Z,13.45
2023-04-29T04:33:40.199Z,10.57
2023-04-29T04:36:42.421Z,12.90
2023-04-29T04:39:44.553Z,10.80
2023-04-29T04:42:48.984Z,11.13
2023-04-29T04:45:51.658Z,11.90
2023-04-29T04:48:54.411Z,16.33
2023-04-29T04:51:57.024Z,16.58
2023-04-29T04:54:59.645Z,18.73
2023-04-29T04:58:04.451Z,20.90
2023-04-29T05:01:06.676Z,21.83
2023-04-29T05:04:09.101Z,24.50
2023-04-29T05:07:11.307Z,24.60
2023-04-29T05:10:33.469Z,27.30
2023-04-29T05:13:36.872Z,27.20
2023-04-29T05:16:39.072Z,20.17
2023-04-29T05:19:41.411Z,18.95
2023-04-29T05:22:45.079Z,17.50
2023-04-29T05:25:48.824Z,17.30
2023-04-29T05:28:52.325Z,12.98
2023-04-29T05:31:55.448Z,12.18
2023-04-29T05:34:57.466Z,11.10
2023-04-29T05:37:59.533Z,13.73
2023-04-29T05:41:07.388Z,11.10
2023-04-29T05:44:20.171Z,13.70
2023-04-29T05:47:22.425Z,15.77
2023-04-29T05:50:24.577Z,12.80
2023-04-29T05:53:26.806Z,11.38
2023-04-29T05:56:29.049Z,19.30
2023-04-29T05:59:32.173Z,13.38
2023-04-29T06:02:50.723Z,11.80
2023-04-29T06:06:02.263Z,10.50
2023-04-29T06:09:28.485Z,14.38
2023-04-29T06:12:36.649Z,15.00
2023-04-29T06:15:38.754Z,13.33
2023-04-29T06:18:41.529Z,10.88
2023-04-29T06:21:43.661Z,15.35
2023-04-29T06:24:45.843Z,14.20
2023-04-29T06:27:50.639Z,11.43
2023-04-29T06:30:55.907Z,13.13
2023-04-29T06:33:58.061Z,12.48
2023-04-29T06:37:00.859Z,12.60
2023-04-29T06:40:21.264Z,11.70
2023-04-29T06:43:43.424Z,11.40
2023-04-29T06:47:05.727Z,13.23
2023-04-29T06:50:29.541Z,12.23
2023-04-29T06:53:31.778Z,9.80
2023-04-29T06:56:33.888Z,12.65
2023-04-29T06:59:35.946Z,16.90
2023-04-29T07:02:39.768Z,16.17
2023-04-29T07:05:46.026Z,15.93
2023-04-29T07:08:48.158Z,13.10
2023-04-29T07:11:50.856Z,11.95
2023-04-29T07:14:55.275Z,11.50
2023-04-29T07:17:57.316Z,10.03
2023-04-29T07:21:03.236Z,11.90
2023-04-29T07:24:05.880Z,8.15
2023-04-29T07:27:07.908Z,10.90
2023-04-29T07:30:11.538Z,10.90
2023-04-29T07:33:13.664Z,11.67
2023-04-29T07:36:15.912Z,14.88
2023-04-29T07:39:18.336Z,12.07
2023-04-29T07:42:23.410Z,11.60
2023-04-29T07:45:26.308Z,11.27
2023-04-29T07:48:28.419Z,11.70
2023-04-29T07:51:31.223Z,10.27
2023-04-29T07:54:33.247Z,10.48
2023-04-29T07:57:35.544Z,11.50
2023-04-29T08:00:37.811Z,9.40
2023-04-29T08:03:42.060Z,6.90
2023-04-29T08:06:45.487Z,6.05
2023-04-29T08:09:47.849Z,9.38
2023-04-29T08:12:49.968Z,8.45
2023-04-29T08:15:52.522Z,8.73
2023-04-29T08:18:56.001Z,6.97
2023-04-29T08:21:58.322Z,10.15
2023-04-29T08:25:01.007Z,7.43
2023-04-29T08:28:03.190Z,6.57
2023-04-29T08:31:07.652Z,11.17
2023-04-29T08:34:09.777Z,8.13
2023-04-29T08:37:12.022Z,7.68
2023-04-29T08:40:14.136Z,14.98
2023-04-29T08:43:16.711Z,11.05
2023-04-29T08:46:19.462Z,9.43
2023-04-29T08:49:21.523Z,6.67
2023-04-29T08:52:24.476Z,6.95
2023-04-29T08:55:26.522Z,9.00
2023-04-29T08:58:29.926Z,8.35
2023-04-29T09:01:32.503Z,9.13
2023-04-29T09:04:49.727Z,8.27
2023-04-29T09:07:52.532Z,4.97
2023-04-29T09:10:55.239Z,7.38
2023-04-29T09:14:03.029Z,5.13
2023-04-29T09:17:05.114Z,5.63
2023-04-29T09:20:27.942Z,9.07
2023-04-29T09:23:37.319Z,5.82
2023-04-29T09:26:43.570Z,7.65
2023-04-29T09:30:00.749Z,9.98
2023-04-29T09:33:07.190Z,7.50
2023-04-29T09:36:09.872Z,7.77
2023-04-29T09:39:16.709Z,8.88
2023-04-29T09:42:18.689Z,6.03
2023-04-29T09:45:41.897Z,5.38
2023-04-29T09:48:43.899Z,4.80
2023-04-29T09:51:55.933Z,6.00
2023-04-29T09:55:04.939Z,8.00
2023-04-29T09:58:07.041Z,5.97
2023-04-29T10:01:09.664Z,7.05
2023-04-29T10:04:12.578Z,9.23
2023-04-29T10:07:15.895Z,6.23
2023-04-29T10:10:18.489Z,6.53
2023-04-29T10:13:20.970Z,9.15
2023-04-29T10:16:26.100Z,5.00
2023-04-29T10:19:35.537Z,5.63
2023-04-29T10:22:37.555Z,6.10
2023-04-29T10:25:40.119Z,5.28
2023-04-29T10:28:43.850Z,6.03
2023-04-29T10:31:46.984Z,7.78
2023-04-29T10:34:49.981Z,6.67
2023-04-29T10:37:53.158Z,6.47
2023-04-29T10:40:57.013Z,7.43
2023-04-29T10:44:01.128Z,5.90
2023-04-29T10:47:22.228Z,8.73
2023-04-29T10:50:24.252Z,4.53
2023-04-29T10:53:27.225Z,5.57
2023-04-29T10:56:39.684Z,7.60
2023-04-29T10:59:41.768Z,5.78
2023-04-29T11:02:43.809Z,7.40
2023-04-29T11:05:45.914Z,6.97
2023-04-29T11:08:47.950Z,7.97
2023-04-29T11:11:54.150Z,8.10
2023-04-29T11:15:03.149Z,5.60
2023-04-29T11:18:05.351Z,7.43
2023-04-29T11:21:07.334Z,6.57
2023-04-29T11:24:09.390Z,10.57
2023-04-29T11:27:11.465Z,6.97
2023-04-29T11:30:13.715Z,7.72
2023-04-29T11:33:15.992Z,7.32
2023-04-29T11:36:18.478Z,5.87
2023-04-29T11:39:20.587Z,6.37
2023-04-29T11:42:22.806Z,6.75
2023-04-29T11:45:24.877Z,7.18
2023-04-29T11:48:27.244Z,8.85
2023-04-29T11:51:29.390Z,5.70
2023-04-29T11:54:31.452Z,6.30
2023-04-29T11:57:33.573Z,9.52
2023-04-29T12:00:35.886Z,6.72
2023-04-29T12:03:38.181Z,6.93
2023-04-29T12:06:41.809Z,5.10
2023-04-29T12:09:44.999Z,5.23
2023-04-29T12:12:47.553Z,5.53
2023-04-29T12:15:50.510Z,6.22
2023-04-29T12:18:53.447Z,5.18
2023-04-29T12:21:58.833Z,7.33
2023-04-29T12:25:03.158Z,6.17
2023-04-29T12:28:06.594Z,5.95
2023-04-29T12:31:11.650Z,5.03
2023-04-29T12:34:13.656Z,6.43
2023-04-29T12:37:16.005Z,7.27
2023-04-29T12:40:20.763Z,7.83
2023-04-29T12:43:29.602Z,5.78
2023-04-29T12:46:37.118Z,4.57
2023-04-29T12:49:43.401Z,5.13
2023-04-29T12:52:45.923Z,10.03
2023-04-29T12:55:48.676Z,4.63
2023-04-29T12:58:50.694Z,7.45
2023-04-29T13:01:52.716Z,6.40
2023-04-29T13:04:55.104Z,5.47
2023-04-29T13:07:57.583Z,6.00
2023-04-29T13:11:00.026Z,5.10
2023-04-29T13:14:02.054Z,8.20
2023-04-29T13:17:04.191Z,7.53
2023-04-29T13:20:06.828Z,8.02
2023-04-29T13:23:09.413Z,5.47
2023-04-29T13:26:11.413Z,4.77
2023-04-29T13:29:13.451Z,6.70
2023-04-29T13:32:18.004Z,5.97
2023-04-29T13:35:20.616Z,5.20
2023-04-29T13:38:23.079Z,5.83
2023-04-29T13:41:26.595Z,5.30
2023-04-29T13:44:36.006Z,5.38
2023-04-29T13:48:06.865Z,9.55
2023-04-29T14:00:55.077Z,6.60
2023-04-29T14:03:47.201Z,6.15
2023-04-29T14:06:49.259Z,7.47
2023-04-29T14:09:51.965Z,4.70
2023-04-29T14:12:54.445Z,7.17
2023-04-29T14:15:56.895Z,7.10
2023-04-29T14:19:00.647Z,6.15
2023-04-29T14:22:04.147Z,5.53
2023-04-29T14:25:06.605Z,6.80
2023-04-29T14:28:08.768Z,8.03
2023-04-29T14:31:13.831Z,8.23
2023-04-29T14:34:15.943Z,4.60
2023-04-29T14:37:17.950Z,5.15
2023-04-29T14:40:20.245Z,6.40
2023-04-29T14:43:23.095Z,7.87
2023-04-29T14:46:25.758Z,5.03
2023-04-29T14:49:30.269Z,9.70
2023-04-29T14:52:33.554Z,7.82
2023-04-29T14:55:35.643Z,9.53
2023-04-29T14:58:37.870Z,7.37
2023-04-29T15:01:40.023Z,5.40
2023-04-29T15:04:45.763Z,6.07
2023-04-29T15:07:48.254Z,5.10
2023-04-29T15:10:50.358Z,9.97
2023-04-29T15:13:52.506Z,5.30
2023-04-29T15:16:54.529Z,4.65
2023-04-29T15:19:56.632Z,8.50
2023-04-29T15:22:58.705Z,4.55
2023-04-29T15:26:00.880Z,6.10
2023-04-29T15:29:03.517Z,6.00
2023-04-29T15:32:05.847Z,6.07
2023-04-29T15:35:08.098Z,5.80
2023-04-29T15:38:10.210Z,7.65
2023-04-29T15:41:12.186Z,5.40
2023-04-29T15:44:14.231Z,6.67
2023-04-29T15:47:16.348Z,6.70
2023-04-29T15:50:18.489Z,4.63
2023-04-29T15:53:20.683Z,5.45
2023-04-29T15:56:22.709Z,5.53
2023-04-29T15:59:24.749Z,5.73
2023-04-29T16:02:26.799Z,6.30
2023-04-29T16:05:29.761Z,5.88
2023-04-29T16:08:31.852Z,6.97
2023-04-29T16:11:33.880Z,6.97
2023-04-29T16:14:35.957Z,7.10
2023-04-29T16:17:38.060Z,6.78
2023-04-29T16:20:40.234Z,10.18
2023-04-29T16:23:42.503Z,6.15
2023-04-29T16:26:44.588Z,7.73
2023-04-29T16:29:46.696Z,9.57
2023-04-29T16:32:48.828Z,11.15
2023-04-29T16:35:51.128Z,8.88
2023-04-29T16:38:54.992Z,7.00
2023-04-29T16:41:56.915Z,5.37
2023-04-29T16:44:58.975Z,4.97
2023-04-29T16:48:01.839Z,4.53
2023-04-29T16:51:04.379Z,6.55
2023-04-29T16:54:08.148Z,8.63
2023-04-29T16:57:10.234Z,9.73
2023-04-29T17:00:12.467Z,5.73
2023-04-29T17:03:14.710Z,8.02
2023-04-29T17:06:16.936Z,8.43
2023-04-29T17:09:19.105Z,8.65
2023-04-29T17:12:21.598Z,6.07
2023-04-29T17:15:23.737Z,8.57
2023-04-29T17:18:25.938Z,6.35
2023-04-29T17:21:29.375Z,6.68
2023-04-29T17:24:32.635Z,7.95
2023-04-29T17:27:34.836Z,7.73
2023-04-29T17:30:36.903Z,7.77
2023-04-29T17:33:39.974Z,7.70
2023-04-29T17:36:42.044Z,6.45
2023-04-29T17:39:44.141Z,7.20
2023-04-29T17:42:46.215Z,10.57
2023-04-29T17:45:48.337Z,8.03
2023-04-29T17:48:50.477Z,7.60
2023-04-29T17:51:52.673Z,14.32
2023-04-29T17:54:55.223Z,14.43
2023-04-29T17:57:57.272Z,7.40
2023-04-29T18:00:59.479Z,10.00
2023-04-29T18:04:01.695Z,14.23
2023-04-29T18:07:03.904Z,8.82
2023-04-29T18:10:06.255Z,9.15
2023-04-29T18:13:08.268Z,11.57
2023-04-29T18:16:10.244Z,7.63
2023-04-29T18:19:12.364Z,8.77
2023-04-29T18:22:14.607Z,8.32
2023-04-29T18:25:17.464Z,8.82
2023-04-29T18:28:25.378Z,10.47
2023-04-29T18:31:27.770Z,12.33
2023-04-29T18:34:29.883Z,14.63
2023-04-29T18:37:31.992Z,15.65
2023-04-29T18:40:36.156Z,13.35
2023-04-29T18:43:38.183Z,13.90
2023-04-29T18:46:40.502Z,17.03
2023-04-29T18:49:42.730Z,20.58
2023-04-29T18:52:44.762Z,18.65
2023-04-29T18:55:47.361Z,13.77
2023-04-29T18:58:50.241Z,18.50
2023-04-29T19:01:52.847Z,17.20
2023-04-29T19:04:55.352Z,18.75
2023-04-29T19:07:57.667Z,18.95
2023-04-29T19:11:00.762Z,15.45
2023-04-29T19:14:04.312Z,14.20
2023-04-29T19:17:06.363Z,16.80
2023-04-29T19:20:10.067Z,12.40
2023-04-29T19:23:12.062Z,12.30
2023-04-29T19:26:14.203Z,12.30
2023-04-29T19:29:16.548Z,12.17
2023-04-29T19:32:20.307Z,11.80
2023-04-29T19:35:22.415Z,14.23
2023-04-29T19:38:25.714Z,10.02
2023-04-29T19:41:27.858Z,11.93
2023-04-29T19:44:29.856Z,20.20
2023-04-29T19:47:32.125Z,21.37
2023-04-29T19:50:34.181Z,16.55
2023-04-29T19:53:36.570Z,18.27
2023-04-29T19:56:38.636Z,17.00
2023-04-29T19:59:40.683Z,19.20
2023-04-29T20:02:43.013Z,17.57
2023-04-29T20:05:45.089Z,19.13
2023-04-29T20:08:47.148Z,15.13
2023-04-29T20:11:49.279Z,20.13
2023-04-29T20:14:51.314Z,17.17
2023-04-29T20:17:53.406Z,16.33
2023-04-29T20:20:56.182Z,15.18
2023-04-29T20:23:58.186Z,16.73
2023-04-29T20:27:00.258Z,15.27
2023-04-29T20:30:02.536Z,16.20
2023-04-29T20:33:05.791Z,12.38
2023-04-29T20:36:09.038Z,12.85
2023-04-29T20:39:11.149Z,12.63
2023-04-29T20:42:13.636Z,16.07
2023-04-29T20:45:15.781Z,12.20
2023-04-29T20:48:18.074Z,13.93
2023-04-29T20:51:20.110Z,12.32
2023-04-29T20:54:22.639Z,14.10
2023-04-29T20:57:24.758Z,13.13
2023-04-29T21:00:26.910Z,12.57
2023-04-29T21:03:28.916Z,11.80
2023-04-29T21:06:32.251Z,11.85
2023-04-29T21:09:35.880Z,14.05
2023-04-29T21:12:37.839Z,13.30
2023-04-29T21:15:39.986Z,12.50
2023-04-29T21:18:42.069Z,14.80
2023-04-29T21:21:44.090Z,16.63
2023-04-29T21:24:46.257Z,16.15
2023-04-29T21:27:48.350Z,11.87
2023-04-29T21:30:50.964Z,14.60
2023-04-29T21:33:53.008Z,13.65
2023-04-29T21:36:55.061Z,11.43
2023-04-29T21:39:58.196Z,14.87
2023-04-29T21:43:00.298Z,16.00
2023-04-29T21:46:02.480Z,18.38
2023-04-29T21:49:04.587Z,13.93
2023-04-29T21:52:06.636Z,12.02
2023-04-29T21:55:08.925Z,14.33
2023-04-29T21:58:11.663Z,14.33
2023-04-29T22:01:32.087Z,12.60
2023-04-29T22:04:34.165Z,14.85
2023-04-29T22:07:36.289Z,12.32
2023-04-29T22:10:40.234Z,15.93
2023-04-29T22:13:42.481Z,12.10
2023-04-29T22:16:44.674Z,13.43
2023-04-29T22:19:46.746Z,13.23
2023-04-29T22:22:48.885Z,12.20
2023-04-29T22:25:51.007Z,15.83
2023-04-29T22:28:53.061Z,14.50
2023-04-29T22:31:55.213Z,13.70
2023-04-29T22:34:59.962Z,14.77
2023-04-29T22:38:02.837Z,12.25
2023-04-29T22:41:05.892Z,13.43
2023-04-29T22:44:07.900Z,11.43
2023-04-29T22:47:09.867Z,13.18
2023-04-29T22:50:11.970Z,14.30
2023-04-29T22:53:14.005Z,15.82
2023-04-29T22:56:16.049Z,14.37
2023-04-29T22:59:18.075Z,18.00
2023-04-29T23:02:20.098Z,15.93
2023-04-29T23:05:22.082Z,17.02
2023-04-29T23:08:24.117Z,16.92
2023-04-29T23:11:26.780Z,13.17
2023-04-29T23:14:28.789Z,15.13
2023-04-29T23:17:30.887Z,20.10
2023-04-29T23:20:33.065Z,17.45
2023-04-29T23:23:35.073Z,15.52
2023-04-29T23:26:37.099Z,17.80
2023-04-29T23:29:41.658Z,19.33
2023-04-29T23:32:43.792Z,14.98
2023-04-29T23:35:52.192Z,21.85
2023-04-29T23:38:54.238Z,17.13
2023-04-29T23:41:56.626Z,18.30
2023-04-29T23:44:58.683Z,16.75
2023-04-29T23:48:00.816Z,17.00
2023-04-29T23:51:03.006Z,16.45
2023-04-29T23:54:04.978Z,19.00
2023-04-29T23:57:07.225Z,18.23
